Mirador — WDF3O95 — position and weather

sailwx.info

Track history (hours):
 
Tides and Currents Weather Stations Pressure Air Temp Water Temp Dewpoint Dewpoint Depression Visibility Wind Speed Wind Dir Waves Ship Positions

Mirador

Last reported at 2014-Feb-19 18:15 UTC. Time now 2014-Sep-18 01:37 UTC.
Position N 24°47' W 081°10'.
Warning: this ship's position is months out of date.

Length 23 m; draft 2 m.

Type: Pleasure craft. MMSI: 367435790.

Date/timePositionNaut miles runAvg speedWind from/ knotsBaromVisibWave heightAir tempDewpointWater temp
2014-Feb-19 18:15N 24°47' W 081°10'6 8.0
2014-Feb-19 17:33N 24°41' W 081°10'61 3.2
2014-Feb-18 22:16N 25°17' W 080°16'6 8.1
2014-Feb-18 21:31N 25°22' W 080°12'8 7.9
2014-Feb-18 20:33N 25°29' W 080°09'8 7.8
2014-Feb-18 19:33N 25°37' W 080°07'8 7.8
2014-Feb-18 18:33N 25°45' W 080°07'4 4.1
2014-Feb-18 17:33N 25°49' W 080°09'2 2.0
2014-Feb-18 16:33N 25°50' W 080°07'0 0.3
2014-Feb-18 15:36N 25°50' W 080°07'1 0.5
2014-Feb-18 14:33N 25°50' W 080°07'0 0.1
2014-Feb-18 13:33N 25°50' W 080°07'0 0.0
2014-Feb-18 12:33N 25°50' W 080°07'  
2014-Feb-11 19:33N 25°50' W 080°07'0 0.1
2014-Feb-11 18:33N 25°50' W 080°07'1 0.8
2014-Feb-11 17:33N 25°50' W 080°07'0 0.0
2014-Feb-11 16:33N 25°50' W 080°07'1 0.5
2014-Feb-11 15:33N 25°50' W 080°07'1 1.1
2014-Feb-11 14:33N 25°51' W 080°07'5 4.6
2014-Feb-11 13:33N 25°48' W 080°11'4 3.9
2014-Feb-11 12:33N 25°44' W 080°11'2 2.1
2014-Feb-11 11:33N 25°42' W 080°11'0 0.0
2014-Feb-11 10:33N 25°42' W 080°11'0 0.0
2014-Feb-11 09:33N 25°42' W 080°11'0 0.0
2014-Feb-11 08:33N 25°42' W 080°11'0 0.0
2014-Feb-11 07:33N 25°42' W 080°11'0 0.0
2014-Feb-11 06:33N 25°42' W 080°11'0 0.0
2014-Feb-11 05:33N 25°42' W 080°11'0 0.0
2014-Feb-11 04:33N 25°42' W 080°11'0 0.0
2014-Feb-11 03:33N 25°42' W 080°11'0 0.0
2014-Feb-11 02:33N 25°42' W 080°11'1 0.5
2014-Feb-11 01:34N 25°41' W 080°11'7 6.8
2014-Feb-11 00:33N 25°35' W 080°07'8 8.0
2014-Feb-10 23:33N 25°27' W 080°10'8 7.7
2014-Feb-10 22:28N 25°20' W 080°13'  
Track history (hours):
 
Tides and Currents Weather Stations Pressure Air Temp Water Temp Dewpoint Dewpoint Depression Visibility Wind Speed Wind Dir Waves Ship Positions

Mirador

Last reported at 2014-Feb-19 18:15 UTC. Time now 2014-Sep-18 01:37 UTC.
Position N 24°47' W 081°10'.
Warning: this ship's position is months out of date.

Length 23 m; draft 2 m.

Type: Pleasure craft. MMSI: 367435790.

Date/timePositionNaut miles runAvg speedWind from/ knotsBaromVisibWave heightAir tempDewpointWater temp
2014-Feb-19 18:15N 24°47' W 081°10'6 8.0
2014-Feb-19 17:33N 24°41' W 081°10'61 3.2
2014-Feb-18 22:16N 25°17' W 080°16'6 8.1
2014-Feb-18 21:31N 25°22' W 080°12'8 7.9
2014-Feb-18 20:33N 25°29' W 080°09'8 7.8
2014-Feb-18 19:33N 25°37' W 080°07'8 7.8
2014-Feb-18 18:33N 25°45' W 080°07'4 4.1
2014-Feb-18 17:33N 25°49' W 080°09'2 2.0
2014-Feb-18 16:33N 25°50' W 080°07'0 0.3
2014-Feb-18 15:36N 25°50' W 080°07'1 0.5
2014-Feb-18 14:33N 25°50' W 080°07'0 0.1
2014-Feb-18 13:33N 25°50' W 080°07'0 0.0
2014-Feb-18 12:33N 25°50' W 080°07'  
2014-Feb-11 19:33N 25°50' W 080°07'0 0.1
2014-Feb-11 18:33N 25°50' W 080°07'1 0.8
2014-Feb-11 17:33N 25°50' W 080°07'0 0.0
2014-Feb-11 16:33N 25°50' W 080°07'1 0.5
2014-Feb-11 15:33N 25°50' W 080°07'1 1.1
2014-Feb-11 14:33N 25°51' W 080°07'5 4.6
2014-Feb-11 13:33N 25°48' W 080°11'4 3.9
2014-Feb-11 12:33N 25°44' W 080°11'2 2.1
2014-Feb-11 11:33N 25°42' W 080°11'0 0.0
2014-Feb-11 10:33N 25°42' W 080°11'0 0.0
2014-Feb-11 09:33N 25°42' W 080°11'0 0.0
2014-Feb-11 08:33N 25°42' W 080°11'0 0.0
2014-Feb-11 07:33N 25°42' W 080°11'0 0.0
2014-Feb-11 06:33N 25°42' W 080°11'0 0.0
2014-Feb-11 05:33N 25°42' W 080°11'0 0.0
2014-Feb-11 04:33N 25°42' W 080°11'0 0.0
2014-Feb-11 03:33N 25°42' W 080°11'0 0.0
2014-Feb-11 02:33N 25°42' W 080°11'1 0.5
2014-Feb-11 01:34N 25°41' W 080°11'7 6.8
2014-Feb-11 00:33N 25°35' W 080°07'8 8.0
2014-Feb-10 23:33N 25°27' W 080°10'8 7.7
2014-Feb-10 22:28N 25°20' W 080°13'  

Dump ship's entire track history